Darstellungsparameter: Aktuell verwendete Einstellungen:
Skalierung der Graphiken ... ?
xyx+y,   Skalierungsfaktor:      Skalierung: Modus: x, Faktor: 1
Darstellungszeitraum ... ?
Vom - - bis: - -   Zeitraum: 27.07.2020 - 02.08.2020
Min/Max/Avg-Anzeige ... ?
Zeige MMA aktuell
Zeige MMA Monat
Zeige MMA alles
Zeige --A aktuell
Zeige --A Monat
Zeige --A alles
Keine MMA-Anzeige
MMA:
Keine MMA-Graphiken
MMA-Basis: 27.07.2020 - 02.08.2020
Quicknavigation für Darstellung... ?
Tage:      1T, 2T, 3T, 5T -1T -2T -3T -5T +1T +2T +3T +5T
Wochen: 1W, 2W, 3W -1W -2W -3W +1W +2W +3W
Monate: 1M, 3M, 6M -1M -3M -6M +1M +3M +6M
Jahre:    1J, 3J, 5J, 10J -1J -3J -5J -10J +1J +3J +5J +10J
Nutze für die Darstellung ... ?
Originaldaten oder Mittelwerte auf ...
Stundenbasis Tagesbasis Wochenbasis
Monatsbasis Jahresbasis      Datenbasis: Original-Daten
Darstellen als:
Statistik (Auto) Statistik J:M      Darstellung:
Zur Graphik,    zurück zur Übersicht aller Sensoren.
 
Tabellarische Datenbersicht: ?
 
Sensor: Nr:Datum:Temp:Feuchte:
Aussen-T/F 1 27-07-2020 00:00:17 16.5 C 34 %
2 27-07-2020 00:10:17 16.6 C 34 %
3 27-07-2020 00:20:17 16.8 C 34 %
4 27-07-2020 00:30:17 16.8 C 34 %
5 27-07-2020 00:40:17 16.3 C 34 %
6 27-07-2020 00:50:18 15.9 C 35 %
7 27-07-2020 01:00:18 15.4 C 35 %
8 27-07-2020 01:10:18 15.2 C 35 %
9 27-07-2020 01:20:17 14.9 C 36 %
10 27-07-2020 01:30:17 14.6 C 36 %
11 27-07-2020 01:40:17 14.3 C 37 %
12 27-07-2020 01:50:17 14.1 C 37 %
13 27-07-2020 02:00:17 14 C 37 %
14 27-07-2020 02:10:17 14 C 37 %
15 27-07-2020 02:20:17 13.8 C 38 %
16 27-07-2020 02:30:18 13.8 C 38 %
17 27-07-2020 02:40:18 13.6 C 39 %
18 27-07-2020 02:50:17 13.3 C 40 %
19 27-07-2020 03:00:18 13.2 C 40 %
20 27-07-2020 03:10:18 13 C 40 %
21 27-07-2020 03:20:17 12.8 C 41 %
22 27-07-2020 03:30:18 12.9 C 41 %
23 27-07-2020 03:40:18 12.6 C 41 %
24 27-07-2020 03:50:18 12.7 C 41 %
25 27-07-2020 04:00:18 12.5 C 41 %
Sensor: Nr:Datum:Temp:Feuchte:
Aussen-T/F 26 27-07-2020 04:10:18 12.3 C 41 %
27 27-07-2020 04:20:17 12.2 C 42 %
28 27-07-2020 04:30:17 12 C 42 %
29 27-07-2020 04:40:17 12.1 C 43 %
30 27-07-2020 04:50:17 12.2 C 43 %
31 27-07-2020 05:00:17 12.3 C 44 %
32 27-07-2020 05:10:17 12.5 C 43 %
33 27-07-2020 05:20:17 12.4 C 43 %
34 27-07-2020 05:30:17 12.9 C 42 %
35 27-07-2020 05:40:17 12.9 C 42 %
36 27-07-2020 05:50:17 12.5 C 42 %
37 27-07-2020 06:00:18 12.3 C 43 %
38 27-07-2020 06:10:18 12.5 C 44 %
39 27-07-2020 06:20:17 12.9 C 43 %
40 27-07-2020 06:30:17 12.8 C 42 %
41 27-07-2020 06:40:17 12.8 C 42 %
42 27-07-2020 06:50:17 12.8 C 42 %
43 27-07-2020 07:00:17 13.2 C 42 %
44 27-07-2020 07:10:17 13.8 C 41 %
45 27-07-2020 07:20:17 14.1 C 40 %
46 27-07-2020 07:30:17 14.3 C 38 %
47 27-07-2020 07:40:17 14.6 C 38 %
48 27-07-2020 07:50:17 15.1 C 36 %
49 27-07-2020 08:00:17 15.4 C 36 %
50 27-07-2020 08:10:17 16.2 C 35 %
Sensor: Nr:Datum:Temp:Feuchte:
Aussen-T/F 51 27-07-2020 08:20:17 16.4 C 35 %
52 27-07-2020 08:30:18 17 C 34 %
53 27-07-2020 08:40:18 17.2 C 34 %
54 27-07-2020 08:50:17 17.9 C 34 %
55 27-07-2020 09:00:18 18.1 C 33 %
56 27-07-2020 09:10:18 17.8 C 33 %
57 27-07-2020 09:20:17 18.4 C 32 %
58 27-07-2020 09:30:17 18.7 C 32 %
59 27-07-2020 09:40:17 19.4 C 31 %
60 27-07-2020 09:50:17 20.8 C 30 %
61 27-07-2020 10:00:17 21.9 C 28 %
62 27-07-2020 10:10:17 20.7 C 30 %
63 27-07-2020 10:20:17 21.9 C 28 %
64 27-07-2020 10:30:18 22.1 C 27 %
65 27-07-2020 10:40:18 22.6 C 27 %
66 27-07-2020 10:50:17 23.2 C 26 %
67 27-07-2020 11:00:17 23.8 C 26 %
68 27-07-2020 11:10:17 24.6 C 25 %
69 27-07-2020 11:20:17 24.7 C 25 %
70 27-07-2020 11:30:17 25.8 C 22 %
71 27-07-2020 11:40:17 26.7 C 21 %
72 27-07-2020 11:50:17 27.4 C 20 %
73 27-07-2020 12:00:17 27.1 C 20 %
74 27-07-2020 12:10:17 27.7 C 20 %
75 27-07-2020 12:20:17 29.5 C 20 %
Sensor: Nr:Datum:Temp:Feuchte:
Aussen-T/F 76 27-07-2020 12:30:17 28.3 C 20 %
77 27-07-2020 12:40:17 27.6 C 20 %
78 27-07-2020 12:50:17 29.4 C 20 %
79 27-07-2020 13:00:17 28.6 C 20 %
80 27-07-2020 13:10:17 28.5 C 20 %
81 27-07-2020 13:20:17 28.3 C 20 %
82 27-07-2020 13:30:17 28 C 20 %
83 27-07-2020 13:40:17 28.2 C 20 %
84 27-07-2020 13:50:17 28.9 C 20 %
85 27-07-2020 14:00:17 30.8 C 20 %
86 27-07-2020 14:10:17 30.1 C 20 %
87 27-07-2020 14:20:17 30.5 C 20 %
88 27-07-2020 14:30:17 32.8 C 20 %
89 27-07-2020 14:40:17 33.5 C 20 %
90 27-07-2020 14:50:17 34.1 C 20 %
91 27-07-2020 15:00:17 34.2 C 20 %
92 27-07-2020 15:10:17 36 C 20 %
93 27-07-2020 15:20:17 34.8 C 20 %
94 27-07-2020 15:30:17 34.2 C 20 %
95 27-07-2020 15:40:17 31.6 C 20 %
96 27-07-2020 15:50:17 30.8 C 20 %
97 27-07-2020 16:00:17 32.1 C 20 %
98 27-07-2020 16:10:17 29.7 C 20 %
99 27-07-2020 16:20:17 30 C 20 %
100 27-07-2020 16:30:17 31.3 C 20 %
Sensor: Nr:Datum:Temp:Feuchte:
Aussen-T/F 101 27-07-2020 16:40:17 30.8 C 20 %
102 27-07-2020 16:50:17 32.3 C 20 %
103 27-07-2020 17:00:17 35.2 C 20 %
104 27-07-2020 17:10:17 36.4 C 20 %
105 27-07-2020 17:20:17 35.1 C 20 %
106 27-07-2020 17:30:18 33.5 C 20 %
107 27-07-2020 17:40:18 35.9 C 20 %
108 27-07-2020 17:50:17 33 C 20 %
109 27-07-2020 18:00:17 33.3 C 20 %
110 27-07-2020 18:10:17 33.1 C 20 %
111 27-07-2020 18:20:17 33.7 C 20 %
112 27-07-2020 18:30:17 31.3 C 20 %
113 27-07-2020 18:40:17 31.6 C 20 %
114 27-07-2020 18:50:17 31.4 C 20 %
115 27-07-2020 19:00:17 31.2 C 20 %
116 27-07-2020 19:10:17 31.4 C 20 %
117 27-07-2020 19:20:17 31.1 C 20 %
118 27-07-2020 19:30:17 30.8 C 20 %
119 27-07-2020 19:40:17 30.1 C 20 %
120 27-07-2020 19:50:17 30.1 C 20 %
121 27-07-2020 20:00:17 29.2 C 20 %
122 27-07-2020 20:10:17 28.8 C 20 %
123 27-07-2020 20:20:17 28.3 C 20 %
124 27-07-2020 20:30:17 28 C 20 %
125 27-07-2020 20:40:17 27.9 C 20 %
Sensor: Nr:Datum:Temp:Feuchte:
Aussen-T/F 126 27-07-2020 20:50:17 27.4 C 20 %
127 27-07-2020 21:00:17 26.9 C 20 %
128 27-07-2020 21:10:17 26.2 C 20 %
129 27-07-2020 21:20:17 25.8 C 20 %
130 27-07-2020 21:30:17 25.9 C 20 %
131 27-07-2020 21:40:17 26.1 C 20 %
132 27-07-2020 21:50:17 25.6 C 20 %
133 27-07-2020 22:00:17 25.3 C 20 %
134 27-07-2020 22:10:17 24.8 C 20 %
135 27-07-2020 22:20:17 25 C 20 %
136 27-07-2020 22:30:17 24.7 C 20 %
137 27-07-2020 22:40:17 24.5 C 20 %
138 27-07-2020 22:50:17 24.2 C 20 %
139 27-07-2020 23:00:17 23.8 C 20 %
140 27-07-2020 23:10:17 23.5 C 21 %
141 27-07-2020 23:20:17 23 C 21 %
142 27-07-2020 23:30:17 22.5 C 23 %
143 27-07-2020 23:40:17 22.1 C 23 %
144 27-07-2020 23:50:17 21.8 C 24 %
145 28-07-2020 00:00:17 21.8 C 24 %
146 28-07-2020 00:10:17 21.6 C 24 %
147 28-07-2020 00:20:17 21.4 C 24 %
148 28-07-2020 00:30:17 21.2 C 25 %
149 28-07-2020 00:40:18 21.3 C 25 %
150 28-07-2020 00:50:17 21.9 C 25 %
Sensor: Nr:Datum:Temp:Feuchte:
Aussen-T/F 151 28-07-2020 01:00:17 22.3 C 23 %
152 28-07-2020 01:10:17 22.3 C 23 %
153 28-07-2020 01:20:17 22.3 C 23 %
154 28-07-2020 01:30:17 22.8 C 22 %
155 28-07-2020 01:40:17 22.5 C 23 %
156 28-07-2020 01:50:17 22.4 C 23 %
157 28-07-2020 02:00:17 23 C 21 %
158 28-07-2020 02:10:17 23.3 C 21 %
159 28-07-2020 02:20:17 22.6 C 22 %
160 28-07-2020 02:30:17 22.6 C 22 %
161 28-07-2020 02:40:17 22 C 23 %
162 28-07-2020 02:50:17 22.3 C 23 %
163 28-07-2020 03:00:17 22 C 23 %
164 28-07-2020 03:10:17 21.6 C 25 %
165 28-07-2020 03:20:17 21.1 C 25 %
166 28-07-2020 03:30:18 20.6 C 25 %
167 28-07-2020 03:40:18 20.3 C 26 %
168 28-07-2020 03:50:17 20.1 C 26 %
169 28-07-2020 04:00:17 20.8 C 26 %
170 28-07-2020 04:10:17 20.4 C 26 %
171 28-07-2020 04:20:17 20.6 C 26 %
172 28-07-2020 04:30:17 20.2 C 26 %
173 28-07-2020 04:40:17 20.2 C 26 %
174 28-07-2020 04:50:17 20.1 C 25 %
175 28-07-2020 05:00:17 20.3 C 25 %
Sensor: Nr:Datum:Temp:Feuchte:
Aussen-T/F 176 28-07-2020 05:10:17 20.2 C 26 %
177 28-07-2020 05:20:17 20.7 C 25 %
178 28-07-2020 05:30:17 20.5 C 25 %
179 28-07-2020 05:40:17 20.5 C 25 %
180 28-07-2020 05:50:17 20.1 C 26 %
181 28-07-2020 06:00:17 19.8 C 27 %
182 28-07-2020 06:10:18 19.6 C 27 %
183 28-07-2020 06:20:17 19.5 C 28 %
184 28-07-2020 06:30:17 19.6 C 28 %
185 28-07-2020 06:40:17 19.8 C 28 %
186 28-07-2020 06:50:17 19.8 C 27 %
187 28-07-2020 07:00:17 20.1 C 27 %
188 28-07-2020 07:10:17 20.6 C 26 %
189 28-07-2020 07:20:17 21.1 C 25 %
190 28-07-2020 07:30:17 21 C 25 %
191 28-07-2020 07:40:17 21.7 C 25 %
192 28-07-2020 07:50:17 21.7 C 26 %
193 28-07-2020 08:00:17 22 C 25 %
194 28-07-2020 08:10:17 22 C 25 %
195 28-07-2020 08:20:17 22.5 C 25 %
196 28-07-2020 08:30:17 22.5 C 25 %
197 28-07-2020 08:40:17 22.1 C 25 %
198 28-07-2020 08:50:17 22.4 C 25 %
199 28-07-2020 09:00:17 22.7 C 25 %
200 28-07-2020 09:10:17 23.3 C 24 %
Sensor: Nr:Datum:Temp:Feuchte:
Aussen-T/F 201 28-07-2020 09:20:17 23.5 C 24 %
202 28-07-2020 09:30:17 23.5 C 24 %
203 28-07-2020 09:40:17 24.1 C 23 %
204 28-07-2020 09:50:17 24.1 C 23 %
205 28-07-2020 10:00:17 23.6 C 23 %
206 28-07-2020 10:10:17 24.1 C 22 %
207 28-07-2020 10:20:17 23.6 C 23 %
208 28-07-2020 10:30:17 23.9 C 23 %
209 28-07-2020 10:40:17 25.4 C 21 %
210 28-07-2020 10:50:17 24.5 C 21 %
211 28-07-2020 11:00:17 25 C 20 %
212 28-07-2020 11:10:17 24.6 C 21 %
213 28-07-2020 11:20:17 25.4 C 20 %
214 28-07-2020 11:30:17 25.9 C 20 %
215 28-07-2020 11:40:17 27.2 C 20 %
216 28-07-2020 11:50:17 28 C 20 %
217 28-07-2020 12:00:17 25.3 C 20 %
218 28-07-2020 12:10:17 27 C 20 %
219 28-07-2020 12:20:17 29.1 C 20 %
220 28-07-2020 12:30:17 27 C 20 %
221 28-07-2020 12:40:17 25.5 C 20 %
222 28-07-2020 12:50:17 26.2 C 20 %
223 28-07-2020 13:00:17 26.3 C 20 %
224 28-07-2020 13:10:17 26.5 C 20 %
225 28-07-2020 13:20:17 27 C 20 %
Sensor: Nr:Datum:Temp:Feuchte:
Aussen-T/F 226 28-07-2020 13:30:17 26.5 C 20 %
227 28-07-2020 13:40:17 26.6 C 20 %
228 28-07-2020 13:50:17 26.3 C 20 %
229 28-07-2020 14:00:17 27.1 C 20 %
230 28-07-2020 14:10:17 30.6 C 20 %
231 28-07-2020 14:20:17 27.5 C 20 %
232 28-07-2020 14:30:17 27.6 C 20 %
233 28-07-2020 14:40:17 26.8 C 20 %
234 28-07-2020 14:50:17 28 C 20 %
235 28-07-2020 15:00:17 28.9 C 20 %
236 28-07-2020 15:10:17 28 C 20 %
237 28-07-2020 15:20:17 27.5 C 20 %
238 28-07-2020 15:30:17 27.1 C 20 %
239 28-07-2020 15:40:18 27.2 C 20 %
240 28-07-2020 15:50:17 27.1 C 20 %
241 28-07-2020 16:00:17 28.3 C 20 %
242 28-07-2020 16:10:17 29.4 C 20 %
243 28-07-2020 16:20:17 28.4 C 20 %
244 28-07-2020 16:30:17 29.1 C 20 %
245 28-07-2020 16:40:17 30.9 C 20 %
246 28-07-2020 16:50:17 31.4 C 20 %
247 28-07-2020 17:00:17 28.5 C 20 %
248 28-07-2020 17:10:17 30 C 20 %
249 28-07-2020 17:20:17 29.2 C 20 %
250 28-07-2020 17:30:17 29.8 C 20 %
Sensor: Nr:Datum:Temp:Feuchte:
Aussen-T/F 251 28-07-2020 17:40:17 29.8 C 20 %
252 28-07-2020 17:50:17 29.4 C 20 %
253 28-07-2020 18:00:17 29.8 C 20 %
254 28-07-2020 18:10:17 29.2 C 20 %
255 28-07-2020 18:20:17 29.5 C 20 %
256 28-07-2020 18:30:17 26.9 C 20 %
257 28-07-2020 18:40:17 26.9 C 20 %
258 28-07-2020 18:50:17 26.5 C 20 %
259 28-07-2020 19:00:17 26.2 C 20 %
260 28-07-2020 19:10:17 25.6 C 20 %
261 28-07-2020 19:20:17 25.1 C 20 %
262 28-07-2020 19:30:17 25.1 C 20 %
263 28-07-2020 19:40:17 24.7 C 20 %
264 28-07-2020 19:50:17 24.1 C 20 %
265 28-07-2020 20:00:17 23.8 C 20 %
266 28-07-2020 20:10:18 23.9 C 20 %
267 28-07-2020 20:20:18 23 C 20 %
268 28-07-2020 20:30:18 23.1 C 20 %
269 28-07-2020 20:40:18 22.5 C 20 %
270 28-07-2020 20:50:17 22.1 C 20 %
271 28-07-2020 21:00:17 21.8 C 20 %
272 28-07-2020 21:10:17 21.5 C 20 %
273 28-07-2020 21:20:17 20.8 C 20 %
274 28-07-2020 21:30:18 20.5 C 20 %
275 28-07-2020 21:40:18 20 C 20 %
Sensor: Nr:Datum:Temp:Feuchte:
Aussen-T/F 276 28-07-2020 21:50:17 19.1 C 21 %
277 28-07-2020 22:00:17 19.2 C 21 %
278 28-07-2020 22:10:17 19.8 C 20 %
279 28-07-2020 22:20:17 19.3 C 21 %
280 28-07-2020 22:30:18 19.2 C 21 %
281 28-07-2020 22:40:18 19.3 C 21 %
282 28-07-2020 22:50:17 19.1 C 21 %
283 28-07-2020 23:00:17 19.2 C 21 %
284 28-07-2020 23:10:17 18.9 C 22 %
285 28-07-2020 23:20:17 18.5 C 23 %
286 28-07-2020 23:30:17 18.3 C 23 %
287 28-07-2020 23:40:17 17.4 C 25 %
288 28-07-2020 23:50:17 16.8 C 26 %
289 29-07-2020 00:00:17 16.4 C 27 %
290 29-07-2020 00:10:18 15.8 C 28 %
291 29-07-2020 00:20:18 15.6 C 29 %
292 29-07-2020 00:30:18 15.6 C 29 %
293 29-07-2020 00:40:18 15.7 C 29 %
294 29-07-2020 00:50:17 15.7 C 29 %
295 29-07-2020 01:00:17 16 C 29 %
296 29-07-2020 01:10:17 15.9 C 30 %
297 29-07-2020 01:20:17 15.8 C 30 %
298 29-07-2020 01:30:18 15.8 C 31 %
299 29-07-2020 01:40:18 15.8 C 31 %
300 29-07-2020 01:50:17 15.9 C 31 %
Sensor: Nr:Datum:Temp:Feuchte:
Aussen-T/F 301 29-07-2020 02:00:17 15.6 C 31 %
302 29-07-2020 02:10:17 15 C 32 %
303 29-07-2020 02:20:17 15.1 C 32 %
304 29-07-2020 02:30:18 14.7 C 33 %
305 29-07-2020 02:40:18 14.5 C 33 %
306 29-07-2020 02:50:17 14.2 C 33 %
307 29-07-2020 03:00:17 13.7 C 35 %
308 29-07-2020 03:10:18 13.5 C 35 %
309 29-07-2020 03:20:17 13.1 C 36 %
310 29-07-2020 03:30:17 12.7 C 37 %
311 29-07-2020 03:40:17 12.4 C 37 %
312 29-07-2020 03:50:17 12.2 C 37 %
313 29-07-2020 04:00:17 12.2 C 38 %
314 29-07-2020 04:10:17 12.6 C 38 %
315 29-07-2020 04:20:17 12.3 C 38 %
316 29-07-2020 04:30:17 12 C 39 %
317 29-07-2020 04:40:17 12 C 38 %
318 29-07-2020 04:50:17 11.7 C 40 %
319 29-07-2020 05:00:18 11.5 C 40 %
320 29-07-2020 05:10:18 11.3 C 40 %
321 29-07-2020 05:21:17 11.1 C 41 %
322 29-07-2020 05:30:18 11.2 C 41 %
323 29-07-2020 05:40:18 11.5 C 41 %
324 29-07-2020 05:50:17 11.4 C 41 %
325 29-07-2020 06:00:17 11.6 C 41 %
Sensor: Nr:Datum:Temp:Feuchte:
Aussen-T/F 326 29-07-2020 06:10:17 11.7 C 40 %
327 29-07-2020 06:20:17 11.6 C 40 %
328 29-07-2020 06:30:17 11.3 C 40 %
329 29-07-2020 06:40:17 11.5 C 40 %
330 29-07-2020 06:50:17 11.7 C 40 %
331 29-07-2020 07:00:17 11.7 C 40 %
332 29-07-2020 07:10:18 11.7 C 40 %
333 29-07-2020 07:20:17 12 C 39 %
334 29-07-2020 07:30:17 11.8 C 40 %
335 29-07-2020 07:40:17 12.3 C 38 %
336 29-07-2020 07:50:18 12.5 C 38 %
337 29-07-2020 08:00:18 12.5 C 38 %
338 29-07-2020 08:10:18 12.4 C 38 %
339 29-07-2020 08:20:17 12.8 C 38 %
340 29-07-2020 08:30:17 13.4 C 36 %
341 29-07-2020 08:40:17 14.3 C 35 %
342 29-07-2020 08:50:17 14.9 C 34 %
343 29-07-2020 09:00:17 15 C 33 %
344 29-07-2020 09:10:17 15.4 C 33 %
345 29-07-2020 09:20:17 15.9 C 33 %
346 29-07-2020 09:30:17 16.8 C 31 %
347 29-07-2020 09:40:17 17.5 C 30 %
348 29-07-2020 09:50:17 18.2 C 29 %
349 29-07-2020 10:00:17 18.7 C 28 %
350 29-07-2020 10:10:17 19 C 27 %
Sensor: Nr:Datum:Temp:Feuchte:
Aussen-T/F 351 29-07-2020 10:20:17 19.4 C 26 %
352 29-07-2020 10:30:17 19.5 C 26 %
353 29-07-2020 10:40:17 20.9 C 25 %
354 29-07-2020 10:50:17 21.4 C 23 %
355 29-07-2020 11:00:17 22.3 C 21 %
356 29-07-2020 11:10:17 22 C 21 %
357 29-07-2020 11:21:17 22.8 C 21 %
358 29-07-2020 11:31:17 24.4 C 20 %
359 29-07-2020 11:41:17 27.2 C 20 %
360 29-07-2020 11:51:17 27.2 C 20 %
361 29-07-2020 12:00:18 28.4 C 20 %
362 29-07-2020 12:10:18 27.6 C 20 %
363 29-07-2020 12:20:17 26.2 C 20 %
364 29-07-2020 12:30:18 23.5 C 20 %
365 29-07-2020 12:40:18 23.5 C 20 %
366 29-07-2020 12:50:17 22.7 C 20 %
367 29-07-2020 13:00:17 22.9 C 20 %
368 29-07-2020 13:10:17 22.9 C 20 %
369 29-07-2020 13:20:17 23.1 C 20 %
370 29-07-2020 13:30:17 23.3 C 20 %
371 29-07-2020 13:40:17 23.5 C 20 %
372 29-07-2020 13:51:17 24.5 C 20 %
373 29-07-2020 14:01:17 24.6 C 20 %
374 29-07-2020 14:11:17 29.4 C 20 %
375 29-07-2020 14:21:17 29.6 C 20 %
Sensor: Nr:Datum:Temp:Feuchte:
Aussen-T/F 376 29-07-2020 14:31:17 32.6 C 20 %
377 29-07-2020 14:41:17 31.2 C 20 %
378 29-07-2020 14:51:17 32.4 C 20 %
379 29-07-2020 15:00:17 31.6 C 20 %
380 29-07-2020 15:10:17 30.4 C 20 %
381 29-07-2020 15:21:17 32.1 C 20 %
382 29-07-2020 15:30:17 31.5 C 20 %
383 29-07-2020 15:40:17 31.6 C 20 %
384 29-07-2020 15:51:17 33.8 C 20 %
385 29-07-2020 16:01:17 31.8 C 20 %
386 29-07-2020 16:10:17 30.1 C 20 %
387 29-07-2020 16:21:17 31 C 20 %
388 29-07-2020 16:30:18 32.2 C 20 %
389 29-07-2020 16:40:18 30.5 C 20 %
390 29-07-2020 16:51:17 29.4 C 20 %
391 29-07-2020 17:01:17 29.9 C 20 %
392 29-07-2020 17:10:17 29 C 20 %
393 29-07-2020 17:21:17 30.4 C 20 %
394 29-07-2020 17:31:17 31.7 C 20 %
395 29-07-2020 17:41:17 32.8 C 20 %
396 29-07-2020 17:51:17 30.9 C 20 %
397 29-07-2020 18:01:17 29 C 20 %
398 29-07-2020 18:11:17 31.1 C 20 %
399 29-07-2020 18:21:17 30.6 C 20 %
400 29-07-2020 18:31:17 26.8 C 20 %
Sensor: Nr:Datum:Temp:Feuchte:
Aussen-T/F 401 29-07-2020 18:41:17 26 C 20 %
402 29-07-2020 18:51:17 26 C 20 %
403 29-07-2020 19:01:17 25.7 C 20 %
404 29-07-2020 19:11:17 25.7 C 20 %
405 29-07-2020 19:20:18 25.4 C 20 %
406 29-07-2020 19:31:17 25.4 C 20 %
407 29-07-2020 19:41:17 25.4 C 20 %
408 29-07-2020 19:51:17 24.6 C 20 %
409 29-07-2020 20:00:18 24.3 C 20 %
410 29-07-2020 20:10:18 23.9 C 20 %
411 29-07-2020 20:21:17 23.7 C 20 %
412 29-07-2020 20:31:17 23.4 C 20 %
413 29-07-2020 20:41:18 23 C 20 %
414 29-07-2020 20:51:18 22.7 C 20 %
415 29-07-2020 21:01:18 22.3 C 20 %
416 29-07-2020 21:11:18 21.8 C 20 %
417 29-07-2020 21:21:17 20.9 C 20 %
418 29-07-2020 21:31:17 19.8 C 22 %
419 29-07-2020 21:41:17 19.4 C 22 %
420 29-07-2020 21:51:17 19.3 C 22 %
421 29-07-2020 22:01:17 18.5 C 24 %
422 29-07-2020 22:11:17 18.5 C 24 %
423 29-07-2020 22:21:17 17.9 C 25 %
424 29-07-2020 22:31:17 18.4 C 25 %
425 29-07-2020 22:41:17 18.4 C 25 %
Sensor: Nr:Datum:Temp:Feuchte:
Aussen-T/F 426 29-07-2020 22:51:17 18.2 C 25 %
427 29-07-2020 23:01:17 17.8 C 25 %
428 29-07-2020 23:11:17 17.2 C 26 %
429 29-07-2020 23:21:17 16.9 C 26 %
430 29-07-2020 23:31:18 16.6 C 27 %
431 29-07-2020 23:40:18 15.8 C 29 %
432 29-07-2020 23:51:17 15.7 C 30 %
433 30-07-2020 00:01:17 15.6 C 30 %
434 30-07-2020 00:11:17 15.1 C 30 %
435 30-07-2020 00:21:17 14.7 C 31 %
436 30-07-2020 00:31:17 14.5 C 32 %
437 30-07-2020 00:41:17 14.5 C 32 %
438 30-07-2020 00:51:17 14.2 C 32 %
439 30-07-2020 01:01:17 13.8 C 33 %
440 30-07-2020 01:11:17 13.7 C 34 %
441 30-07-2020 01:21:17 13.6 C 34 %
442 30-07-2020 01:31:17 13.4 C 34 %
443 30-07-2020 01:41:17 13.3 C 35 %
444 30-07-2020 01:51:17 13.2 C 35 %
445 30-07-2020 02:01:17 13.1 C 35 %
446 30-07-2020 02:11:17 13 C 35 %
447 30-07-2020 02:21:17 12.9 C 36 %
448 30-07-2020 02:31:17 12.7 C 36 %
449 30-07-2020 02:41:17 12.4 C 36 %
450 30-07-2020 02:51:17 12.4 C 36 %
Sensor: Nr:Datum:Temp:Feuchte:
Aussen-T/F 451 30-07-2020 03:01:17 12.3 C 37 %
452 30-07-2020 03:11:17 12.1 C 37 %
453 30-07-2020 03:21:17 12.1 C 37 %
454 30-07-2020 03:31:17 11.9 C 38 %
455 30-07-2020 03:41:18 11.9 C 38 %
456 30-07-2020 03:51:17 11.7 C 38 %
457 30-07-2020 04:01:18 11.7 C 39 %
458 30-07-2020 04:11:18 11.6 C 39 %
459 30-07-2020 04:21:18 11.6 C 39 %
460 30-07-2020 04:31:18 11.5 C 39 %
461 30-07-2020 04:41:18 11.4 C 39 %
462 30-07-2020 04:51:17 11.5 C 39 %
463 30-07-2020 05:01:17 11.5 C 39 %
464 30-07-2020 05:11:17 11.2 C 40 %
465 30-07-2020 05:21:17 11.2 C 40 %
466 30-07-2020 05:31:17 11.2 C 40 %
467 30-07-2020 05:41:17 11.2 C 40 %
468 30-07-2020 05:51:17 11.2 C 40 %
469 30-07-2020 06:01:18 10.9 C 41 %
470 30-07-2020 06:11:18 10.9 C 41 %
471 30-07-2020 06:21:18 10.9 C 41 %
472 30-07-2020 06:31:17 10.9 C 41 %
473 30-07-2020 06:41:17 11 C 41 %
474 30-07-2020 06:51:17 11.3 C 40 %
475 30-07-2020 07:01:17 11.6 C 40 %
Sensor: Nr:Datum:Temp:Feuchte:
Aussen-T/F 476 30-07-2020 07:11:17 11.8 C 40 %
477 30-07-2020 07:21:18 11.9 C 40 %
478 30-07-2020 07:31:17 11.9 C 40 %
479 30-07-2020 07:41:18 12.1 C 39 %
480 30-07-2020 07:51:17 12.4 C 38 %
481 30-07-2020 08:01:17 12.6 C 38 %
482 30-07-2020 08:11:17 12.6 C 38 %
483 30-07-2020 08:21:17 12.7 C 39 %
484 30-07-2020 08:31:17 13 C 38 %
485 30-07-2020 08:41:18 13.3 C 37 %
486 30-07-2020 08:51:17 13.6 C 37 %
487 30-07-2020 09:01:17 14.2 C 36 %
488 30-07-2020 09:11:17 14.7 C 35 %
489 30-07-2020 09:21:17 15.3 C 34 %
490 30-07-2020 09:31:17 16 C 33 %
491 30-07-2020 09:41:18 16.9 C 32 %
492 30-07-2020 09:51:17 18.3 C 30 %
493 30-07-2020 10:01:17 19.4 C 28 %
494 30-07-2020 10:11:17 19.9 C 28 %
495 30-07-2020 10:21:17 20.4 C 27 %
496 30-07-2020 10:31:17 21.3 C 25 %
497 30-07-2020 10:41:17 23 C 22 %
498 30-07-2020 10:51:17 22.8 C 22 %
499 30-07-2020 11:01:17 23.1 C 21 %
500 30-07-2020 11:11:17 23.8 C 21 %
Sensor: Nr:Datum:Temp:Feuchte:
Aussen-T/F 501 30-07-2020 11:21:17 24.4 C 20 %
502 30-07-2020 11:31:17 27.1 C 20 %
503 30-07-2020 11:41:17 28.5 C 20 %
504 30-07-2020 11:51:17 27.6 C 20 %
505 30-07-2020 12:01:17 29.4 C 20 %
506 30-07-2020 12:11:17 30.8 C 20 %
507 30-07-2020 12:21:17 27.9 C 20 %
508 30-07-2020 12:31:17 27.1 C 20 %
509 30-07-2020 12:41:17 25.7 C 20 %
510 30-07-2020 12:51:17 25.5 C 20 %
511 30-07-2020 13:01:17 25.6 C 20 %
512 30-07-2020 13:11:18 25.6 C 20 %
513 30-07-2020 13:21:17 25.8 C 20 %
514 30-07-2020 13:31:17 26.1 C 20 %
515 30-07-2020 13:41:17 26.4 C 20 %
516 30-07-2020 13:51:17 26.5 C 20 %
517 30-07-2020 14:01:17 27.4 C 20 %
518 30-07-2020 14:11:18 32 C 20 %
519 30-07-2020 14:21:17 31.6 C 20 %
520 30-07-2020 14:31:17 31.7 C 20 %
521 30-07-2020 14:41:17 35.5 C 20 %
522 30-07-2020 14:51:17 36.3 C 20 %
523 30-07-2020 15:01:17 35.5 C 20 %
524 30-07-2020 15:11:17 36.2 C 20 %
525 30-07-2020 15:21:17 34.3 C 20 %
Sensor: Nr:Datum:Temp:Feuchte:
Aussen-T/F 526 30-07-2020 15:31:17 35.4 C 20 %
527 30-07-2020 15:41:17 36.1 C 20 %
528 30-07-2020 15:51:17 34.2 C 20 %
529 30-07-2020 16:01:17 36.4 C 20 %
530 30-07-2020 16:11:17 33.9 C 20 %
531 30-07-2020 16:21:17 34.5 C 20 %
532 30-07-2020 16:31:17 32.6 C 20 %
533 30-07-2020 16:41:17 35.8 C 20 %
534 30-07-2020 16:51:17 36.5 C 20 %
535 30-07-2020 17:01:17 35.4 C 20 %
536 30-07-2020 17:11:17 34.5 C 20 %
537 30-07-2020 17:21:17 36.1 C 20 %
538 30-07-2020 17:31:17 34.5 C 20 %
539 30-07-2020 17:41:17 36.7 C 20 %
540 30-07-2020 17:51:17 37 C 20 %
541 30-07-2020 18:01:17 35.8 C 20 %
542 30-07-2020 18:11:17 35.5 C 20 %
543 30-07-2020 18:21:17 33.2 C 20 %
544 30-07-2020 18:31:17 32.2 C 20 %
545 30-07-2020 18:41:17 31.1 C 20 %
546 30-07-2020 18:51:16 30.5 C 20 %
547 30-07-2020 19:01:17 30.3 C 20 %
548 30-07-2020 19:11:17 30.2 C 20 %
549 30-07-2020 19:21:17 30 C 20 %
550 30-07-2020 19:31:17 29.7 C 20 %
Sensor: Nr:Datum:Temp:Feuchte:
Aussen-T/F 551 30-07-2020 19:41:17 29.5 C 20 %
552 30-07-2020 19:51:16 29.4 C 20 %
553 30-07-2020 20:01:17 29.1 C 20 %
554 30-07-2020 20:11:17 28.9 C 20 %
555 30-07-2020 20:21:16 28.5 C 20 %
556 30-07-2020 20:31:17 28 C 20 %
557 30-07-2020 20:41:17 27.4 C 20 %
558 30-07-2020 20:51:16 25.9 C 20 %
559 30-07-2020 21:01:16 24.8 C 20 %
560 30-07-2020 21:11:16 24.1 C 20 %
561 30-07-2020 21:21:16 23.6 C 20 %
562 30-07-2020 21:31:16 23.2 C 20 %
563 30-07-2020 21:41:16 23.1 C 20 %
564 30-07-2020 21:51:16 22.7 C 20 %
565 30-07-2020 22:01:17 22.3 C 20 %
566 30-07-2020 22:11:17 22 C 20 %
567 30-07-2020 22:21:16 21.9 C 20 %
568 30-07-2020 22:31:16 21.7 C 20 %
569 30-07-2020 22:41:16 21.2 C 20 %
570 30-07-2020 22:51:16 20.8 C 20 %
571 30-07-2020 23:01:16 20.2 C 20 %
572 30-07-2020 23:11:16 19.7 C 22 %
573 30-07-2020 23:21:16 19.3 C 22 %
574 30-07-2020 23:31:16 18.9 C 24 %
575 30-07-2020 23:41:16 18.5 C 25 %
Sensor: Nr:Datum:Temp:Feuchte:
Aussen-T/F 576 30-07-2020 23:51:16 18.3 C 25 %
577 31-07-2020 00:01:17 18.1 C 25 %
578 31-07-2020 00:11:17 17.9 C 26 %
579 31-07-2020 00:21:16 17.5 C 26 %
580 31-07-2020 00:31:17 17.5 C 26 %
581 31-07-2020 00:41:17 17.3 C 26 %
582 31-07-2020 00:51:16 17 C 26 %
583 31-07-2020 01:01:16 16.8 C 26 %
584 31-07-2020 01:11:16 16.7 C 27 %
585 31-07-2020 01:21:16 16.5 C 27 %
586 31-07-2020 01:31:16 16.4 C 27 %
587 31-07-2020 01:41:16 16.2 C 28 %
588 31-07-2020 01:51:16 16 C 28 %
589 31-07-2020 02:01:16 15.8 C 29 %
590 31-07-2020 02:11:16 15.6 C 30 %
591 31-07-2020 02:21:16 15.5 C 30 %
592 31-07-2020 02:31:16 15.2 C 30 %
593 31-07-2020 02:41:16 15 C 30 %
594 31-07-2020 02:51:17 15 C 30 %
595 31-07-2020 03:01:17 14.8 C 31 %
596 31-07-2020 03:11:17 14.7 C 31 %
597 31-07-2020 03:21:17 14.6 C 31 %
598 31-07-2020 03:31:17 14.4 C 32 %
599 31-07-2020 03:41:17 14.3 C 32 %
600 31-07-2020 03:51:17 14.2 C 33 %
Sensor: Nr:Datum:Temp:Feuchte:
Aussen-T/F 601 31-07-2020 04:01:17 14 C 33 %
602 31-07-2020 04:11:17 13.9 C 34 %
603 31-07-2020 04:21:17 13.7 C 34 %
604 31-07-2020 04:31:17 13.7 C 35 %
605 31-07-2020 04:41:17 13.4 C 35 %
606 31-07-2020 04:51:17 13.4 C 35 %
607 31-07-2020 05:01:17 13.4 C 35 %
608 31-07-2020 05:11:17 13.2 C 35 %
609 31-07-2020 05:21:17 13.1 C 36 %
610 31-07-2020 05:31:17 12.9 C 37 %
611 31-07-2020 05:41:17 13 C 36 %
612 31-07-2020 05:51:17 12.8 C 37 %
613 31-07-2020 06:01:17 13 C 36 %
614 31-07-2020 06:11:17 12.9 C 37 %
615 31-07-2020 06:21:17 13.1 C 36 %
616 31-07-2020 06:31:17 13.1 C 36 %
617 31-07-2020 06:41:17 13.3 C 36 %
618 31-07-2020 06:51:17 13.4 C 36 %
619 31-07-2020 07:01:17 13.5 C 36 %
620 31-07-2020 07:11:17 13.4 C 36 %
621 31-07-2020 07:21:17 13.4 C 36 %
622 31-07-2020 07:31:17 13.5 C 36 %
623 31-07-2020 07:41:17 13.8 C 36 %
624 31-07-2020 07:51:17 13.8 C 36 %
625 31-07-2020 08:01:17 14.1 C 35 %
Sensor: Nr:Datum:Temp:Feuchte:
Aussen-T/F 626 31-07-2020 08:11:17 14.3 C 35 %
627 31-07-2020 08:21:17 14.4 C 36 %
628 31-07-2020 08:31:17 14.7 C 36 %
629 31-07-2020 08:41:17 14.9 C 36 %
630 31-07-2020 08:51:17 15.5 C 35 %
631 31-07-2020 09:01:17 16 C 34 %
632 31-07-2020 09:11:17 16.5 C 33 %
633 31-07-2020 09:21:17 17.2 C 32 %
634 31-07-2020 09:31:17 18 C 31 %
635 31-07-2020 09:41:17 18.9 C 30 %
636 31-07-2020 09:51:17 20.3 C 28 %
637 31-07-2020 10:01:17 21.6 C 26 %
638 31-07-2020 10:11:17 21.5 C 26 %
639 31-07-2020 10:21:17 22 C 25 %
640 31-07-2020 10:31:18 23.6 C 21 %
641 31-07-2020 10:41:18 25.9 C 20 %
642 31-07-2020 10:51:17 25.7 C 20 %
643 31-07-2020 11:01:18 25.9 C 20 %
644 31-07-2020 11:11:18 27.5 C 20 %
645 31-07-2020 11:21:17 29.5 C 20 %
646 31-07-2020 11:31:17 31.7 C 20 %
647 31-07-2020 11:41:17 32.9 C 20 %
648 31-07-2020 11:51:17 33 C 20 %
649 31-07-2020 12:01:17 32.2 C 20 %
650 31-07-2020 12:11:17 31.9 C 20 %
Sensor: Nr:Datum:Temp:Feuchte:
Aussen-T/F 651 31-07-2020 12:21:17 32 C 20 %
652 31-07-2020 12:31:17 31.3 C 20 %
653 31-07-2020 12:41:17 30.7 C 20 %
654 31-07-2020 12:51:17 30.9 C 20 %
655 31-07-2020 13:01:17 31.2 C 20 %
656 31-07-2020 13:11:17 31.4 C 20 %
657 31-07-2020 13:21:17 31.5 C 20 %
658 31-07-2020 13:31:18 31.8 C 20 %
659 31-07-2020 13:41:18 32 C 20 %
660 31-07-2020 13:51:17 32.4 C 20 %
661 31-07-2020 14:01:17 33.6 C 20 %
662 31-07-2020 14:11:17 37.8 C 20 %
663 31-07-2020 14:21:17 40 C 20 %
664 31-07-2020 14:31:17 39.7 C 20 %
665 31-07-2020 14:41:17 40.7 C 20 %
666 31-07-2020 14:51:17 39.9 C 20 %
667 31-07-2020 15:01:18 40.9 C 20 %
668 31-07-2020 15:11:18 41.1 C 20 %
669 31-07-2020 15:21:17 40.3 C 20 %
670 31-07-2020 15:31:17 41.9 C 20 %
671 31-07-2020 15:41:17 42.2 C 20 %
672 31-07-2020 15:51:17 41.8 C 20 %
673 31-07-2020 16:01:17 43 C 20 %
674 31-07-2020 16:11:17 42.8 C 20 %
675 31-07-2020 16:21:17 39.2 C 20 %
Sensor: Nr:Datum:Temp:Feuchte:
Aussen-T/F 676 31-07-2020 16:31:17 42.6 C 20 %
677 31-07-2020 16:41:18 43 C 20 %
678 31-07-2020 16:51:17 39.2 C 20 %
679 31-07-2020 17:01:17 42.9 C 20 %
680 31-07-2020 17:11:17 43.5 C 20 %
681 31-07-2020 17:21:17 40.4 C 20 %
682 31-07-2020 17:31:17 41.8 C 20 %
683 31-07-2020 17:41:17 40.5 C 20 %
684 31-07-2020 17:51:17 42.3 C 20 %
685 31-07-2020 18:01:17 41.8 C 20 %
686 31-07-2020 18:11:17 40.6 C 20 %
687 31-07-2020 18:21:17 39.7 C 20 %
688 31-07-2020 18:31:17 38 C 20 %
689 31-07-2020 18:41:17 36.2 C 20 %
690 31-07-2020 18:51:17 36.1 C 20 %
691 31-07-2020 19:01:17 35.9 C 20 %
692 31-07-2020 19:11:17 35.6 C 20 %
693 31-07-2020 19:21:17 35.5 C 20 %
694 31-07-2020 19:31:17 34.9 C 20 %
695 31-07-2020 19:41:17 34.7 C 20 %
696 31-07-2020 19:51:17 34.3 C 20 %
697 31-07-2020 20:01:17 33.6 C 20 %
698 31-07-2020 20:11:17 32.8 C 20 %
699 31-07-2020 20:21:17 32.2 C 20 %
700 31-07-2020 20:31:17 31.1 C 20 %
Sensor: Nr:Datum:Temp:Feuchte:
Aussen-T/F 701 31-07-2020 20:41:18 30.1 C 20 %
702 31-07-2020 20:51:17 28.8 C 20 %
703 31-07-2020 21:01:17 27.6 C 20 %
704 31-07-2020 21:11:17 27 C 20 %
705 31-07-2020 21:21:17 26.5 C 20 %
706 31-07-2020 21:31:17 26.5 C 20 %
707 31-07-2020 21:41:17 26.1 C 20 %
708 31-07-2020 21:51:18 26 C 20 %
709 31-07-2020 22:01:18 25.7 C 20 %
710 31-07-2020 22:11:18 25.1 C 20 %
711 31-07-2020 22:21:18 25.1 C 20 %
712 31-07-2020 22:31:18 24.6 C 20 %
713 31-07-2020 22:41:18 24.1 C 20 %
714 31-07-2020 22:51:17 23.5 C 20 %
715 31-07-2020 23:01:17 23.2 C 20 %
716 31-07-2020 23:11:17 22.9 C 20 %
717 31-07-2020 23:21:17 23.1 C 20 %
718 31-07-2020 23:31:17 22.4 C 20 %
719 31-07-2020 23:41:17 22.2 C 21 %
720 31-07-2020 23:51:17 21.7 C 22 %
721 01-08-2020 00:01:17 21.3 C 22 %
722 01-08-2020 00:11:18 20.9 C 24 %
723 01-08-2020 00:21:17 20.8 C 25 %
724 01-08-2020 00:31:18 20.6 C 25 %
725 01-08-2020 00:41:18 20.1 C 25 %
Sensor: Nr:Datum:Temp:Feuchte:
Aussen-T/F 726 01-08-2020 00:51:18 20 C 25 %
727 01-08-2020 01:01:17 19.7 C 26 %
728 01-08-2020 01:11:18 19.6 C 26 %
729 01-08-2020 01:21:17 19.4 C 28 %
730 01-08-2020 01:31:17 19.4 C 28 %
731 01-08-2020 01:41:17 19.1 C 28 %
732 01-08-2020 01:51:17 19.1 C 28 %
733 01-08-2020 02:01:17 18.9 C 29 %
734 01-08-2020 02:11:18 18.9 C 29 %
735 01-08-2020 02:21:17 18.9 C 29 %
736 01-08-2020 02:31:17 18.9 C 29 %
737 01-08-2020 02:41:17 18.4 C 30 %
738 01-08-2020 02:51:17 18.7 C 30 %
739 01-08-2020 03:01:17 18.7 C 29 %
740 01-08-2020 03:11:17 18.3 C 29 %
741 01-08-2020 03:21:17 18.1 C 29 %
742 01-08-2020 03:31:17 17.9 C 30 %
743 01-08-2020 03:41:17 17.5 C 31 %
744 01-08-2020 03:51:17 17.5 C 31 %
745 01-08-2020 04:01:17 17.3 C 31 %
746 01-08-2020 04:11:17 17.2 C 31 %
747 01-08-2020 04:21:17 17.2 C 31 %
748 01-08-2020 04:31:17 17.7 C 31 %
749 01-08-2020 04:41:17 18.1 C 31 %
750 01-08-2020 04:51:18 18.6 C 30 %
Sensor: Nr:Datum:Temp:Feuchte:
Aussen-T/F 751 01-08-2020 05:01:18 18.5 C 30 %
752 01-08-2020 05:11:18 18 C 31 %
753 01-08-2020 05:21:17 17.7 C 31 %
754 01-08-2020 05:31:17 17.6 C 31 %
755 01-08-2020 05:41:17 17.9 C 31 %
756 01-08-2020 05:51:17 18.6 C 30 %
757 01-08-2020 06:01:17 18.8 C 30 %
758 01-08-2020 06:11:17 18.3 C 30 %
759 01-08-2020 06:21:17 17.9 C 31 %
760 01-08-2020 06:31:17 17.7 C 31 %
761 01-08-2020 06:41:17 18 C 31 %
762 01-08-2020 06:51:17 17.6 C 32 %
763 01-08-2020 07:01:18 17.5 C 32 %
764 01-08-2020 07:11:18 17.8 C 32 %
765 01-08-2020 07:21:17 18 C 32 %
766 01-08-2020 07:31:17 18.3 C 32 %
767 01-08-2020 07:41:17 18.7 C 31 %
768 01-08-2020 07:51:17 19.2 C 31 %
769 01-08-2020 08:01:17 20.4 C 29 %
770 01-08-2020 08:11:18 22 C 26 %
771 01-08-2020 08:21:17 22.7 C 25 %
772 01-08-2020 08:31:18 22.9 C 25 %
773 01-08-2020 08:41:18 20.1 C 30 %
774 01-08-2020 08:51:17 19.1 C 35 %
775 01-08-2020 09:01:18 19 C 37 %
Sensor: Nr:Datum:Temp:Feuchte:
Aussen-T/F 776 01-08-2020 09:11:18 19 C 37 %
777 01-08-2020 09:21:17 19.2 C 37 %
778 01-08-2020 09:31:17 19.5 C 36 %
779 01-08-2020 09:41:17 19.1 C 39 %
780 01-08-2020 09:51:17 19.1 C 41 %
781 01-08-2020 10:01:17 19.1 C 41 %
782 01-08-2020 10:11:17 19.3 C 42 %
783 01-08-2020 10:21:17 19.3 C 42 %
784 01-08-2020 10:31:17 19.4 C 41 %
785 01-08-2020 10:41:17 19.4 C 41 %
786 01-08-2020 10:51:17 19.6 C 41 %
787 01-08-2020 11:01:17 19.7 C 41 %
788 01-08-2020 11:11:17 19.9 C 41 %
789 01-08-2020 11:21:17 20.2 C 41 %
790 01-08-2020 11:31:17 20.2 C 40 %
791 01-08-2020 11:41:18 20.4 C 40 %
792 01-08-2020 11:51:17 20.8 C 41 %
793 01-08-2020 12:01:18 21.3 C 40 %
794 01-08-2020 12:11:18 22.3 C 37 %
795 01-08-2020 12:21:17 22.5 C 34 %
796 01-08-2020 12:31:17 22 C 35 %
797 01-08-2020 12:41:17 21.9 C 36 %
798 01-08-2020 12:51:18 22 C 35 %
799 01-08-2020 13:01:17 21.9 C 36 %
800 01-08-2020 13:11:17 22.5 C 35 %
Sensor: Nr:Datum:Temp:Feuchte:
Aussen-T/F 801 01-08-2020 13:21:17 22.9 C 35 %
802 01-08-2020 13:31:17 23.8 C 32 %
803 01-08-2020 13:41:17 25 C 30 %
804 01-08-2020 13:51:17 25.6 C 30 %
805 01-08-2020 14:01:17 26.1 C 28 %
806 01-08-2020 14:11:17 26.3 C 28 %
807 01-08-2020 14:21:17 26.8 C 28 %
808 01-08-2020 14:31:18 27.2 C 27 %
809 01-08-2020 14:41:18 26.3 C 28 %
810 01-08-2020 14:51:17 26.9 C 28 %
811 01-08-2020 15:01:18 30.8 C 25 %
812 01-08-2020 15:11:18 30.2 C 23 %
813 01-08-2020 15:21:17 33.1 C 20 %
814 01-08-2020 15:31:17 33.4 C 20 %
815 01-08-2020 15:41:17 33.5 C 20 %
816 01-08-2020 15:51:18 35.4 C 20 %
817 01-08-2020 16:01:17 34.4 C 20 %
818 01-08-2020 16:11:17 35.6 C 20 %
819 01-08-2020 16:21:17 36.5 C 20 %
820 01-08-2020 16:31:17 35.8 C 20 %
821 01-08-2020 16:41:17 36.7 C 20 %
822 01-08-2020 16:51:17 35.7 C 20 %
823 01-08-2020 17:01:17 36.4 C 20 %
824 01-08-2020 17:11:17 35.7 C 20 %
825 01-08-2020 17:21:17 37.1 C 20 %
Sensor: Nr:Datum:Temp:Feuchte:
Aussen-T/F 826 01-08-2020 17:31:18 36.3 C 20 %
827 01-08-2020 17:41:18 36.9 C 20 %
828 01-08-2020 17:51:17 33.5 C 20 %
829 01-08-2020 18:01:18 33 C 20 %
830 01-08-2020 18:11:18 32.9 C 20 %
831 01-08-2020 18:21:17 32.1 C 20 %
832 01-08-2020 18:31:17 31.3 C 20 %
833 01-08-2020 18:41:17 30.3 C 20 %
834 01-08-2020 18:51:17 28.9 C 22 %
835 01-08-2020 19:01:18 27.6 C 25 %
836 01-08-2020 19:11:18 27.2 C 25 %
837 01-08-2020 19:21:17 27 C 24 %
838 01-08-2020 19:31:17 27.7 C 23 %
839 01-08-2020 19:41:17 28.1 C 23 %
840 01-08-2020 19:51:17 26.8 C 25 %
841 01-08-2020 20:01:17 20.7 C 28 %
842 01-08-2020 20:11:17 20.8 C 42 %
843 01-08-2020 20:21:17 21.2 C 41 %
844 01-08-2020 20:31:17 21.6 C 41 %
845 01-08-2020 20:41:18 21.6 C 40 %
846 01-08-2020 20:51:17 21.4 C 40 %
847 01-08-2020 21:01:17 21.3 C 40 %
848 01-08-2020 21:11:17 21.2 C 40 %
849 01-08-2020 21:21:17 21.1 C 40 %
850 01-08-2020 21:31:17 21 C 40 %
Sensor: Nr:Datum:Temp:Feuchte:
Aussen-T/F 851 01-08-2020 21:41:17 20.9 C 41 %
852 01-08-2020 21:51:18 20.9 C 40 %
853 01-08-2020 22:01:17 20.9 C 40 %
854 01-08-2020 22:11:17 20.9 C 40 %
855 01-08-2020 22:21:17 21 C 39 %
856 01-08-2020 22:31:18 21.1 C 39 %
857 01-08-2020 22:41:18 21 C 39 %
858 01-08-2020 22:51:17 21 C 39 %
859 01-08-2020 23:01:17 20.9 C 40 %
860 01-08-2020 23:11:17 20.7 C 40 %
861 01-08-2020 23:21:17 20.5 C 40 %
862 01-08-2020 23:31:18 20.5 C 40 %
863 01-08-2020 23:41:18 20.4 C 40 %
864 01-08-2020 23:51:17 20.3 C 40 %
865 02-08-2020 00:01:17 20.2 C 40 %
866 02-08-2020 00:11:17 20.1 C 40 %
867 02-08-2020 00:21:17 20 C 40 %
868 02-08-2020 00:31:18 20.2 C 40 %
869 02-08-2020 00:41:18 20.2 C 40 %
870 02-08-2020 00:51:17 20.1 C 40 %
871 02-08-2020 01:01:18 20.1 C 40 %
872 02-08-2020 01:11:18 20.2 C 40 %
873 02-08-2020 01:21:17 20.3 C 40 %
874 02-08-2020 01:31:17 20.3 C 40 %
875 02-08-2020 01:41:17 20.3 C 40 %
Sensor: Nr:Datum:Temp:Feuchte:
Aussen-T/F 876 02-08-2020 01:51:17 20.1 C 40 %
877 02-08-2020 02:01:18 19.8 C 42 %
878 02-08-2020 02:11:18 19.6 C 42 %
879 02-08-2020 02:21:17 19.4 C 42 %
880 02-08-2020 02:31:17 19.4 C 42 %
881 02-08-2020 02:41:17 19.3 C 41 %
882 02-08-2020 02:51:17 19 C 41 %
883 02-08-2020 03:01:17 19.2 C 42 %
884 02-08-2020 03:11:17 19.1 C 41 %
885 02-08-2020 03:21:17 19.1 C 41 %
886 02-08-2020 03:31:17 19.1 C 41 %
887 02-08-2020 03:41:17 19.1 C 42 %
888 02-08-2020 03:51:17 19.1 C 41 %
889 02-08-2020 04:01:18 19.1 C 41 %
890 02-08-2020 04:11:18 19 C 41 %
891 02-08-2020 04:21:17 18.9 C 41 %
892 02-08-2020 04:31:17 18.6 C 41 %
893 02-08-2020 04:41:17 18.4 C 41 %
894 02-08-2020 04:51:17 18.3 C 41 %
895 02-08-2020 05:01:17 18.2 C 40 %
896 02-08-2020 05:11:17 18 C 39 %
897 02-08-2020 05:21:17 18 C 40 %
898 02-08-2020 05:31:17 18 C 39 %
899 02-08-2020 05:41:17 17.8 C 40 %
900 02-08-2020 05:51:17 18.2 C 36 %
Sensor: Nr:Datum:Temp:Feuchte:
Aussen-T/F 901 02-08-2020 06:01:17 18 C 38 %
902 02-08-2020 06:11:17 17.8 C 38 %
903 02-08-2020 06:21:17 17.7 C 38 %
904 02-08-2020 06:31:17 17.7 C 39 %
905 02-08-2020 06:41:17 18.1 C 35 %
906 02-08-2020 06:51:17 18.5 C 35 %
907 02-08-2020 07:01:17 18.4 C 35 %
908 02-08-2020 07:11:17 18.2 C 37 %
909 02-08-2020 07:21:17 18.1 C 37 %
910 02-08-2020 07:31:18 18.1 C 38 %
911 02-08-2020 07:41:18 18.2 C 38 %
912 02-08-2020 07:51:17 18.5 C 36 %
913 02-08-2020 08:01:17 18.8 C 37 %
914 02-08-2020 08:11:17 19.1 C 36 %
915 02-08-2020 08:21:17 19.7 C 35 %
916 02-08-2020 08:31:17 19.9 C 35 %
917 02-08-2020 08:41:17 19.9 C 35 %
918 02-08-2020 08:51:17 20.3 C 33 %
919 02-08-2020 09:01:17 20.3 C 32 %
920 02-08-2020 09:11:17 20.7 C 32 %
921 02-08-2020 09:21:17 20.7 C 32 %
922 02-08-2020 09:31:17 21.2 C 31 %
923 02-08-2020 09:41:17 21.9 C 30 %
924 02-08-2020 09:51:17 22.4 C 29 %
925 02-08-2020 10:01:17 22.5 C 29 %
Sensor: Nr:Datum:Temp:Feuchte:
Aussen-T/F 926 02-08-2020 10:11:17 22.1 C 28 %
927 02-08-2020 10:21:17 22.6 C 28 %
928 02-08-2020 10:31:17 22.7 C 27 %
929 02-08-2020 10:41:17 23.3 C 26 %
930 02-08-2020 10:51:17 23.6 C 26 %
931 02-08-2020 11:01:17 23.9 C 26 %
932 02-08-2020 11:11:17 24.7 C 25 %
933 02-08-2020 11:21:17 24.9 C 24 %
934 02-08-2020 11:31:17 24 C 25 %
935 02-08-2020 11:41:17 24.2 C 25 %
936 02-08-2020 11:51:17 24.1 C 24 %
937 02-08-2020 12:01:17 23.9 C 25 %
938 02-08-2020 12:11:17 25 C 24 %
939 02-08-2020 12:21:17 24.3 C 24 %
940 02-08-2020 12:31:17 24.2 C 22 %
941 02-08-2020 12:41:17 24.1 C 22 %
942 02-08-2020 12:51:17 24.4 C 22 %
943 02-08-2020 13:01:17 25.4 C 21 %
944 02-08-2020 13:11:17 25.8 C 22 %
945 02-08-2020 13:21:17 25.2 C 22 %
946 02-08-2020 13:31:17 25.9 C 22 %
947 02-08-2020 13:41:17 26 C 21 %
948 02-08-2020 13:51:17 25.3 C 21 %
949 02-08-2020 14:01:18 25.5 C 21 %
950 02-08-2020 14:11:18 25.7 C 21 %
Sensor: Nr:Datum:Temp:Feuchte:
Aussen-T/F 951 02-08-2020 14:21:17 27.6 C 20 %
952 02-08-2020 14:31:17 26.7 C 20 %
953 02-08-2020 14:41:17 26.5 C 20 %
954 02-08-2020 14:51:17 27.6 C 20 %
955 02-08-2020 15:01:17 28 C 20 %
956 02-08-2020 15:11:17 29.9 C 20 %
957 02-08-2020 15:21:17 27.2 C 20 %
958 02-08-2020 15:31:17 27.7 C 20 %
959 02-08-2020 15:41:17 26.5 C 20 %
960 02-08-2020 15:51:18 28.5 C 20 %
961 02-08-2020 16:01:17 27.4 C 20 %
962 02-08-2020 16:11:17 27.3 C 20 %
963 02-08-2020 16:21:17 28.7 C 20 %
964 02-08-2020 16:31:17 29.6 C 20 %
965 02-08-2020 16:41:17 30 C 20 %
966 02-08-2020 16:51:17 29.3 C 20 %
967 02-08-2020 17:01:17 28.9 C 20 %
968 02-08-2020 17:11:17 31.2 C 20 %
969 02-08-2020 17:21:17 29.8 C 20 %
970 02-08-2020 17:31:18 27.6 C 20 %
971 02-08-2020 17:41:18 28.8 C 20 %
972 02-08-2020 17:51:17 29.2 C 20 %
973 02-08-2020 18:01:17 28.8 C 20 %
974 02-08-2020 18:11:17 30.9 C 20 %
975 02-08-2020 18:21:17 27.3 C 20 %
Sensor: Nr:Datum:Temp:Feuchte:
Aussen-T/F 976 02-08-2020 18:31:17 25.5 C 20 %
977 02-08-2020 18:41:17 26.2 C 20 %
978 02-08-2020 18:51:17 25.8 C 20 %
979 02-08-2020 19:01:17 25.8 C 20 %
980 02-08-2020 19:11:17 25.6 C 20 %
981 02-08-2020 19:21:17 25.5 C 20 %
982 02-08-2020 19:31:17 25.5 C 20 %
983 02-08-2020 19:41:18 25.2 C 20 %
984 02-08-2020 19:51:17 24.7 C 20 %
985 02-08-2020 20:01:17 24.3 C 20 %
986 02-08-2020 20:11:17 23.9 C 20 %
987 02-08-2020 20:21:17 23.6 C 20 %
988 02-08-2020 20:31:17 23 C 21 %
989 02-08-2020 20:41:18 22.6 C 23 %
990 02-08-2020 20:51:17 22 C 23 %
991 02-08-2020 21:01:18 21.7 C 25 %
992 02-08-2020 21:11:18 21.3 C 25 %
993 02-08-2020 21:21:17 21.1 C 25 %
994 02-08-2020 21:31:17 20.8 C 26 %
995 02-08-2020 21:41:17 19.2 C 29 %
996 02-08-2020 21:51:17 19.2 C 30 %
997 02-08-2020 22:01:18 19.1 C 30 %
998 02-08-2020 22:11:18 19.2 C 30 %
999 02-08-2020 22:21:17 19.2 C 30 %
1000 02-08-2020 22:31:17 19.2 C 30 %
Sensor: Nr:Datum:Temp:Feuchte:
Aussen-T/F 1001 02-08-2020 22:41:17 19.7 C 30 %
1002 02-08-2020 22:51:17 19.2 C 30 %
1003 02-08-2020 23:01:17 19.1 C 30 %
1004 02-08-2020 23:11:17 19.1 C 31 %
1005 02-08-2020 23:21:17 19 C 31 %
1006 02-08-2020 23:31:17 18.3 C 32 %
1007 02-08-2020 23:41:17 18.3 C 32 %
1008 02-08-2020 23:51:17 18 C 33 %
Sensor: Nr:Datum:Temp:Feuchte:

Legende:
   Min
   Max


Maximal/Minimal-Werte vom 27.07.2020 - 02.08.2020

Sensor Min Max Avg
Temp
(Aussen-T/F)
10.9 °C
30-07-2020  06:01:18
43.5 °C
31-07-2020  17:11:17
22.7 °C
Feuchte
(Aussen-T/F)
20 %
27-07-2020  11:50:17
44 %
27-07-2020  05:00:17
27.26 %
Temp
(G-T/H)
°C
-- 
°C 0 °C
Feuchte
(G-T/H)
%
-- 
% 0 %

Die Daten stammen von einer Davis Vantage Pro 2 Wetter-Station und werden unter Linux mit der Software wview2wettercgi und aufbereitet. Alle Angaben erfolgen ohne Gewähr für ihre Vollständigkeit oder Richtigkeit.
Kontakt: Rainer Krienke krienke@uni-koblenz.de . Meine Webseiten an der Uni Koblenz oder privat.
Version: $Revision: 0.78 $